Marquette, MI

5:41 AM EST on January 28, 2015 (GMT -0500)
Delta County | Change Station
CLOSE
Current Station
Airport
Location: Escanaba,
Elevation: 607 ft
Nearby Weather Stations

Elev 607 ft 45.72 °N, 87.09 °W | Updated 6 minutes ago

Overcast
Overcast
19 °F
Feels Like 12 °F
N
6
Wind Variable Wind from SSW

Today
High -- | Low -- °F
--% Chance of Precip.
Yesterday
High -- | Low -- °F
Precip. -- in
8:17 AM 5:47 PM
Waxing Gibbous, 63% visible
Pressure 30.22 in
Visibility 10.0 miles
Clouds Overcast 2600 ft
Windchill 12 °F
Dew Point 16 °F
Humidity 86%
Rainfall 0.00 in
Snow Depth Not available.
UV 0 out of 12
Pollen .10 out of 12
Air Quality Not available.
Flu Activity Not available.
METAR KESC 281035Z AUTO 21005KT 10SM OVC026 M07/M09 A3022 RMK AO1

More Conditions Fewer Conditions

Pressure 30.22 in
Visibility 10.0 miles
Clouds Overcast 2600 ft
Windchill 12 °F
Dew Point 16 °F
Humidity 86%
Rainfall 0.00 in
Snow Depth Not available.
UV 0 out of 12
Pollen .10 out of 12
Air Quality Not available.
Flu Activity Not available.
METAR KESC 281035Z AUTO 21005KT 10SM OVC026 M07/M09 A3022 RMK AO1

More Conditions Fewer Conditions

10-Day Weather Forecast

Almanac

Astronomy

Jan. 28, 2015 Rise Set
Actual Time
Civil Twilight
Nautical Twilight
Astronomical Twilight
Moon
Length of Visible Light
Length of Day
Tomorrow will be .
, % of the Moon is Illuminated

Today's Extremes

State Highs State Lows

Community

WunderPhotos

Upload Photos

1,791,121 photos uploaded!

WunderBlogs® & News

Nearby

Air Quality

  Air Quality AQ Index Pollutant
Not available.

Snow Depth

Station Depth Elevation

Earthquake Activity

City Distance Mag. Time & Date
Minimum magnitude displayed is 2.5.

Coastal Water Temperatures

Place Temperature

Nearby Weather Stations